Time;durP1;ratioP1;P1;durP2;ratioP2;P2;SDS_P1;SDS_P2;PMS_P1;PMS_P2;Temp;Humidity;BMP_temperature;BMP_pressure;BME280_temperature;BME280_humidity;BME280_pressure;Samples;Min_cycle;Max_cycle;Signal;HPM_P1;HPM_P2
2022/03/11 00:02:03;;;;;;;13.60;8.35;;;;;;;9.32;37.32;101546.22;3591116;39;20342;-63
2022/03/11 00:04:28;;;;;;;13.50;8.52;;;;;;;9.33;37.21;101544.44;3592783;40;20096;-63
2022/03/11 00:06:54;;;;;;;14.45;8.57;;;;;;;9.30;37.65;101535.56;3588390;40;20327;-63
2022/03/11 00:09:20;;;;;;;12.35;8.38;;;;;;;9.28;37.03;101531.19;3591107;40;20055;-63
2022/03/11 00:11:45;;;;;;;13.10;8.30;;;;;;;9.22;37.37;101531.47;3592291;40;20052;-63
2022/03/11 00:14:11;;;;;;;13.25;8.70;;;;;;;9.24;37.11;101534.97;3591715;40;20052;-63
2022/03/11 00:16:37;;;;;;;13.20;8.75;;;;;;;9.24;38.09;101540.34;3591644;40;20047;-63
2022/03/11 00:19:03;;;;;;;12.60;7.38;;;;;;;9.23;37.53;101531.44;3588727;40;20059;-63
2022/03/11 00:21:28;;;;;;;16.65;8.70;;;;;;;9.17;37.40;101514.75;3591824;40;20047;-63
2022/03/11 00:23:54;;;;;;;13.60;8.43;;;;;;;9.18;37.72;101530.75;3591476;40;20051;-63
2022/03/11 00:26:19;;;;;;;16.67;9.43;;;;;;;9.13;37.44;101526.53;3593111;40;20294;-63
2022/03/11 00:28:45;;;;;;;12.63;8.35;;;;;;;9.06;38.35;101517.88;3591444;40;20116;-63
2022/03/11 00:31:10;;;;;;;15.10;8.18;;;;;;;9.05;38.27;101519.69;3592882;40;20052;-63
2022/03/11 00:33:36;;;;;;;15.30;8.77;;;;;;;9.00;38.37;101516.34;3592237;40;20051;-63
2022/03/11 00:36:02;;;;;;;15.00;8.43;;;;;;;8.89;38.37;101513.28;3592089;40;20075;-63
2022/03/11 00:38:28;;;;;;;14.20;8.80;;;;;;;8.85;38.75;101527.75;3592548;40;20071;-63
2022/03/11 00:40:56;;;;;;;13.02;8.43;;;;;;;8.72;39.12;101515.78;3591188;40;20080;-63
2022/03/11 00:43:26;;;;;;;19.80;9.30;;;;;;;8.68;39.20;101517.75;3588074;40;20040;-63
2022/03/11 00:45:52;;;;;;;15.63;9.18;;;;;;;8.59;38.88;101513.66;3593354;39;20050;-62
2022/03/11 00:48:20;;;;;;;14.75;9.15;;;;;;;8.56;40.04;101513.78;3592033;40;20039;-63
2022/03/11 00:50:47;;;;;;;19.98;9.00;;;;;;;8.53;39.44;101508.56;3591785;40;20371;-63
2022/03/11 00:53:13;;;;;;;18.70;9.35;;;;;;;8.53;39.97;101508.56;3591656;40;20044;-63
2022/03/11 00:55:39;;;;;;;17.83;9.32;;;;;;;8.47;40.17;101500.78;3591456;40;20089;-63
2022/03/11 00:58:05;;;;;;;14.07;9.13;;;;;;;8.42;39.47;101501.91;3590283;40;20106;-63
2022/03/11 01:00:32;;;;;;;14.25;9.30;;;;;;;8.35;39.99;101498.59;3591818;39;20063;-63
2022/03/11 01:02:58;;;;;;;14.57;9.20;;;;;;;8.26;40.54;101493.59;3590919;40;20060;-63
2022/03/11 01:05:25;;;;;;;18.58;10.27;;;;;;;8.21;40.79;101495.59;3591928;40;20097;-63
2022/03/11 01:07:52;;;;;;;17.38;9.65;;;;;;;8.21;40.91;101493.78;3587555;40;20074;-63
2022/03/11 01:10:19;;;;;;;16.70;9.35;;;;;;;8.16;40.44;101484.22;3591277;40;20048;-63
2022/03/11 01:12:45;;;;;;;15.80;9.43;;;;;;;8.11;40.85;101482.56;3591219;40;20062;-63
2022/03/11 01:15:11;;;;;;;14.32;9.93;;;;;;;8.07;41.20;101497.03;3590362;40;20068;-62
2022/03/11 01:17:38;;;;;;;16.20;9.15;;;;;;;8.02;40.82;101480.28;3591202;40;20051;-62
2022/03/11 01:20:10;;;;;;;15.70;9.65;;;;;;;7.99;41.26;101485.78;3590654;40;20056;-62
2022/03/11 01:22:35;;;;;;;14.88;9.40;;;;;;;7.94;41.37;101474.38;3591620;39;20391;-62
2022/03/11 01:25:01;;;;;;;16.67;9.05;;;;;;;7.90;41.67;101473.63;3590228;40;20096;-62
2022/03/11 01:27:28;;;;;;;13.43;9.50;;;;;;;7.85;41.10;101472.94;3589456;40;20052;-62
2022/03/11 01:29:53;;;;;;;16.08;9.98;;;;;;;7.87;41.45;101462.19;3590671;40;20047;-62
2022/03/11 01:32:19;;;;;;;17.13;9.73;;;;;;;7.85;41.39;101464.91;3591264;40;20058;-62
2022/03/11 01:34:44;;;;;;;17.88;9.73;;;;;;;7.82;41.01;101448.97;3587673;40;20052;-63
2022/03/11 01:37:10;;;;;;;15.40;9.20;;;;;;;7.90;40.81;101454.03;3591181;40;20125;-62
2022/03/11 01:39:36;;;;;;;14.63;9.52;;;;;;;7.89;40.86;101452.25;3591604;40;20059;-62
2022/03/11 01:42:01;;;;;;;16.17;9.52;;;;;;;7.89;41.12;101449.59;3590841;40;20126;-62
2022/03/11 01:44:28;;;;;;;15.18;9.27;;;;;;;7.86;40.88;101444.34;3591293;40;20367;-62
2022/03/11 01:46:54;;;;;;;16.38;9.30;;;;;;;7.76;41.29;101417.09;3590157;39;20047;-63
2022/03/11 01:49:21;;;;;;;17.05;9.50;;;;;;;7.83;41.48;101439.13;3591902;40;20051;-62
2022/03/11 01:51:48;;;;;;;13.65;8.70;;;;;;;7.82;41.69;101435.59;3581440;40;20044;-62
2022/03/11 01:54:13;;;;;;;14.93;8.95;;;;;;;7.83;40.76;101428.41;3589900;40;20056;-63
2022/03/11 01:56:40;;;;;;;17.70;9.18;;;;;;;7.84;40.74;101424.84;3591170;40;20063;-62
2022/03/11 01:59:11;;;;;;;15.88;9.38;;;;;;;7.82;40.97;101416.84;3592515;40;20110;-62
2022/03/11 02:01:37;;;;;;;18.33;9.15;;;;;;;7.84;40.84;101419.47;3594054;40;20271;-62
2022/03/11 02:04:03;;;;;;;18.50;9.82;;;;;;;7.84;40.74;101420.34;3591585;39;20055;-62
2022/03/11 02:06:29;;;;;;;14.10;9.43;;;;;;;7.83;40.93;101412.38;3593151;40;20059;-62
2022/03/11 02:08:56;;;;;;;15.38;9.45;;;;;;;7.76;41.01;101408.19;3583862;40;20071;-62
2022/03/11 02:11:22;;;;;;;15.38;9.35;;;;;;;7.75;40.80;101401.13;3592109;40;20044;-62
2022/03/11 02:13:52;;;;;;;18.90;10.00;;;;;;;7.76;40.58;101402.84;3591750;40;20044;-62
2022/03/11 02:16:28;;;;;;;16.02;9.82;;;;;;;7.75;40.39;101401.13;3588652;40;20374;-62
2022/03/11 02:18:55;;;;;;;17.30;9.70;;;;;;;7.75;40.34;101393.09;3589496;40;20070;-61
2022/03/11 02:21:23;;;;;;;16.25;9.57;;;;;;;7.77;40.96;101391.19;3588459;40;20118;-61
2022/03/11 02:23:53;;;;;;;16.55;9.55;;;;;;;7.78;40.61;101392.97;3588087;40;20058;-61
2022/03/11 02:26:22;;;;;;;16.92;8.88;;;;;;;7.81;40.16;101387.50;3588188;40;20048;-61
2022/03/11 02:28:51;;;;;;;16.17;9.70;;;;;;;7.84;39.83;101382.00;3587636;40;20064;-61
2022/03/11 02:31:23;;;;;;;15.07;9.02;;;;;;;7.82;40.64;101379.38;3588334;40;20044;-61
2022/03/11 02:33:48;;;;;;;15.40;9.10;;;;;;;7.84;39.44;101377.53;3589557;40;20383;-61
2022/03/11 02:36:14;;;;;;;14.93;8.90;;;;;;;7.88;40.11;101373.78;3588884;40;20059;-62
2022/03/11 02:38:40;;;;;;;15.73;9.73;;;;;;;7.89;39.79;101364.78;3589679;40;20390;-62
2022/03/11 02:41:07;;;;;;;15.27;9.25;;;;;;;7.79;39.99;101344.72;3589269;40;20101;-62
2022/03/11 02:43:33;;;;;;;17.45;9.88;;;;;;;7.94;40.02;101372.66;3585165;40;20068;-61
2022/03/11 02:45:59;;;;;;;16.40;9.05;;;;;;;7.93;39.79;101370.91;3590442;39;21488;-62
2022/03/11 02:48:25;;;;;;;14.85;8.98;;;;;;;7.91;39.51;101368.28;3591283;39;20574;-62
2022/03/11 02:50:51;;;;;;;13.82;9.00;;;;;;;7.86;40.06;101356.88;3589201;39;20058;-62
2022/03/11 02:53:17;;;;;;;15.35;9.38;;;;;;;7.88;39.66;101360.38;3590843;39;20049;-62
2022/03/11 02:55:43;;;;;;;14.10;8.90;;;;;;;7.87;39.63;101360.47;3589433;40;20043;-62
2022/03/11 02:58:09;;;;;;;12.65;8.98;;;;;;;7.87;39.45;101349.75;3590930;40;20431;-61
2022/03/11 03:00:34;;;;;;;17.92;10.75;;;;;;;7.81;39.73;101350.03;3588163;40;20047;-61
2022/03/11 03:03:00;;;;;;;15.77;9.43;;;;;;;7.79;39.52;101342.03;3589599;40;20063;-62
2022/03/11 03:05:26;;;;;;;14.63;9.70;;;;;;;7.84;39.19;101350.75;3589307;40;20052;-62
2022/03/11 03:07:51;;;;;;;15.38;8.80;;;;;;;7.84;39.28;101349.88;3587265;40;20390;-62
2022/03/11 03:10:17;;;;;;;14.52;8.93;;;;;;;7.83;39.54;101353.47;3589539;40;20051;-62
2022/03/11 03:12:42;;;;;;;14.85;9.25;;;;;;;7.84;39.56;101355.25;3587633;40;20507;-62
2022/03/11 03:15:09;;;;;;;15.75;9.30;;;;;;;7.81;38.95;101347.34;3587804;40;20064;-62
2022/03/11 03:17:36;;;;;;;15.55;8.40;;;;;;;7.84;39.05;101349.88;3588016;40;20053;-62
2022/03/11 03:20:04;;;;;;;13.95;8.50;;;;;;;7.82;39.29;101346.41;3589220;40;20383;-62
2022/03/11 03:22:31;;;;;;;13.23;8.90;;;;;;;7.81;39.46;101350.03;3588489;40;20048;-62
2022/03/11 03:24:57;;;;;;;14.20;8.73;;;;;;;7.78;39.17;101352.81;3588120;40;20051;-62
2022/03/11 03:27:22;;;;;;;14.88;8.93;;;;;;;7.77;39.35;101354.63;3590363;40;20489;-62
2022/03/11 03:29:48;;;;;;;14.73;8.90;;;;;;;7.77;39.42;101345.69;3586369;40;20098;-62
2022/03/11 03:32:13;;;;;;;12.95;8.73;;;;;;;7.74;39.14;101351.19;3589618;40;20057;-62
2022/03/11 03:34:39;;;;;;;13.90;9.23;;;;;;;7.75;39.61;101344.91;3586870;40;20060;-62
2022/03/11 03:37:09;;;;;;;14.00;9.00;;;;;;;7.74;39.25;101348.50;3590683;40;20051;-62
2022/03/11 03:39:39;;;;;;;15.20;8.88;;;;;;;7.72;39.47;101337.88;3589115;40;20060;-62
2022/03/11 03:42:07;;;;;;;15.35;8.43;;;;;;;7.70;39.44;101342.41;3588294;40;20072;-61
2022/03/11 03:44:34;;;;;;;15.35;8.88;;;;;;;7.47;39.55;101308.59;3589301;40;20048;-61
2022/03/11 03:47:00;;;;;;;12.57;8.20;;;;;;;7.67;39.27;101338.09;3587988;39;20063;-62
2022/03/11 03:49:26;;;;;;;17.10;9.18;;;;;;;7.64;39.20;101332.88;3590847;40;20095;-62
2022/03/11 03:51:52;;;;;;;14.73;9.60;;;;;;;7.63;39.70;101341.81;3589666;40;20051;-62
2022/03/11 03:54:21;;;;;;;16.25;8.98;;;;;;;7.65;38.93;101329.25;3590770;40;20052;-62
2022/03/11 03:56:47;;;;;;;17.35;9.15;;;;;;;7.51;39.90;101320.03;3589378;40;20386;-62
2022/03/11 03:59:13;;;;;;;12.50;8.10;;;;;;;7.57;39.26;101328.69;3590010;40;20319;-62
2022/03/11 04:01:42;;;;;;;14.05;8.80;;;;;;;7.62;39.44;101339.22;3590343;40;20052;-61
2022/03/11 04:04:11;;;;;;;14.35;8.50;;;;;;;7.58;39.65;101335.78;3585779;40;20105;-62
2022/03/11 04:06:40;;;;;;;14.57;8.45;;;;;;;7.48;39.30;101321.03;3589092;40;20048;-62
2022/03/11 04:09:08;;;;;;;11.80;7.88;;;;;;;7.53;39.46;101329.75;3588169;40;20061;-62
2022/03/11 04:11:34;;;;;;;16.02;9.10;;;;;;;7.52;39.72;101335.19;3593236;39;20327;-62
2022/03/11 04:14:01;;;;;;;14.20;8.82;;;;;;;7.51;39.22;101330.72;3588787;40;20044;-62
2022/03/11 04:16:27;;;;;;;11.48;7.88;;;;;;;7.50;39.36;101329.88;3588512;40;20286;-62
2022/03/11 04:18:53;;;;;;;13.13;8.50;;;;;;;7.35;39.54;101304.63;3588728;40;20071;-62
2022/03/11 04:21:19;;;;;;;17.38;8.43;;;;;;;7.31;39.79;101303.00;3587699;40;20120;-62
2022/03/11 04:23:47;;;;;;;12.60;8.35;;;;;;;7.47;39.64;101323.78;3588223;40;20043;-62
2022/03/11 04:26:13;;;;;;;13.82;8.27;;;;;;;7.46;38.91;101322.91;3589394;40;20402;-62
2022/03/11 04:28:40;;;;;;;11.98;7.82;;;;;;;7.46;39.43;101322.91;3589522;40;20092;-62
2022/03/11 04:31:10;;;;;;;13.20;7.90;;;;;;;7.46;39.08;101314.88;3592255;39;20264;-62
2022/03/11 04:33:38;;;;;;;14.02;8.35;;;;;;;7.45;39.12;101313.13;3588856;40;20349;-62
2022/03/11 04:36:06;;;;;;;11.48;7.82;;;;;;;7.44;39.32;101309.59;3587580;40;20048;-62
2022/03/11 04:38:33;;;;;;;12.70;8.05;;;;;;;7.44;38.99;101314.06;3588764;40;20050;-62
2022/03/11 04:41:00;;;;;;;13.15;8.15;;;;;;;7.42;38.91;101299.88;3587509;40;20063;-62
2022/03/11 04:43:27;;;;;;;10.35;7.20;;;;;;;7.46;39.07;101306.88;3588691;40;20405;-62
2022/03/11 04:45:53;;;;;;;11.80;7.72;;;;;;;7.42;38.72;101307.91;3589089;39;20648;-62
2022/03/11 04:48:19;;;;;;;12.63;7.85;;;;;;;7.44;38.80;101309.59;3588703;40;20044;-62
2022/03/11 04:50:45;;;;;;;11.80;7.05;;;;;;;7.47;38.97;101305.06;3588671;39;20129;-62
2022/03/11 04:53:10;;;;;;;13.18;7.53;;;;;;;7.47;38.64;101303.25;3590731;40;20055;-62
2022/03/11 04:55:36;;;;;;;13.73;8.13;;;;;;;7.47;38.81;101313.94;3587903;40;20098;-62
2022/03/11 04:58:03;;;;;;;12.80;8.35;;;;;;;7.37;39.18;101291.19;3587500;40;20060;-62
2022/03/11 05:00:29;;;;;;;12.38;8.30;;;;;;;7.23;38.86;101267.69;3589675;39;20064;-62
2022/03/11 05:02:55;;;;;;;12.32;7.53;;;;;;;7.46;38.73;101306.88;3590602;39;20145;-62
2022/03/11 05:05:21;;;;;;;10.55;7.35;;;;;;;7.40;38.83;101296.41;3589561;40;20040;-62
2022/03/11 05:07:47;;;;;;;11.90;7.47;;;;;;;7.48;39.05;101315.69;3588632;40;20094;-62
2022/03/11 05:10:14;;;;;;;11.35;7.15;;;;;;;7.49;39.03;101296.03;3588807;40;20063;-62
2022/03/11 05:12:41;;;;;;;15.30;8.07;;;;;;;7.47;39.10;101307.72;3589071;39;20304;-62
2022/03/11 05:15:10;;;;;;;13.70;7.35;;;;;;;7.44;39.14;101304.25;3591596;39;20059;-62
2022/03/11 05:17:36;;;;;;;11.93;7.75;;;;;;;7.44;38.80;101303.38;3587396;39;20056;-62
2022/03/11 05:20:07;;;;;;;12.68;7.93;;;;;;;7.42;39.05;101299.88;3587573;40;20064;-62
2022/03/11 05:22:33;;;;;;;12.45;7.65;;;;;;;7.18;38.85;101270.53;3586769;40;20382;-62
2022/03/11 05:25:00;;;;;;;11.00;7.75;;;;;;;7.37;39.29;101299.22;3588434;40;20056;-62
2022/03/11 05:27:26;;;;;;;11.30;7.43;;;;;;;7.33;39.15;101305.63;3587830;40;20058;-62
2022/03/11 05:29:51;;;;;;;12.40;7.65;;;;;;;7.31;39.96;101296.78;3587691;40;20078;-62
2022/03/11 05:32:20;;;;;;;18.85;8.18;;;;;;;7.28;39.69;101300.44;3587115;40;20044;-62
2022/03/11 05:34:47;;;;;;;15.60;8.02;;;;;;;7.25;40.11;101295.22;3578883;40;20060;-62
2022/03/11 05:37:13;;;;;;;12.65;7.57;;;;;;;7.22;39.93;101293.53;3587989;40;20454;-62
2022/03/11 05:39:39;;;;;;;11.60;7.47;;;;;;;7.25;39.62;101300.56;3578706;40;20056;-62
2022/03/11 05:42:05;;;;;;;12.88;8.02;;;;;;;7.23;39.37;101291.75;3588459;40;20052;-64
2022/03/11 05:44:31;;;;;;;12.40;7.50;;;;;;;7.26;40.15;101298.78;3587866;40;20064;-62
2022/03/11 05:46:56;;;;;;;11.40;7.45;;;;;;;7.22;40.02;101296.22;3589780;39;20117;-62
2022/03/11 05:49:23;;;;;;;14.68;8.20;;;;;;;6.99;40.38;101253.50;3587961;40;20279;-62
2022/03/11 05:51:49;;;;;;;13.13;7.60;;;;;;;7.18;40.17;101291.06;3587500;40;20056;-62
2022/03/11 05:54:15;;;;;;;13.23;8.07;;;;;;;7.18;40.38;101297.28;3588890;40;20054;-61
2022/03/11 05:56:41;;;;;;;16.80;7.53;;;;;;;7.18;40.50;101289.25;3587559;40;20056;-62
2022/03/11 05:59:06;;;;;;;14.57;7.97;;;;;;;7.16;40.81;101291.13;3589320;40;20062;-62
2022/03/11 06:01:33;;;;;;;10.43;7.20;;;;;;;7.15;40.41;101302.75;3587438;39;20128;-62
2022/03/11 06:04:01;;;;;;;11.00;7.25;;;;;;;7.10;40.89;101279.81;3586776;40;20048;-61
2022/03/11 06:06:27;;;;;;;13.35;7.72;;;;;;;7.13;41.00;101291.22;3588456;39;20084;-60
2022/03/11 06:08:53;;;;;;;13.57;8.00;;;;;;;7.11;40.91;101270.88;3587585;40;20076;-60
2022/03/11 06:11:19;;;;;;;11.65;7.43;;;;;;;7.17;41.07;101289.34;3588024;39;20067;-60
2022/03/11 06:13:44;;;;;;;12.55;7.95;;;;;;;7.16;41.12;101285.78;3588034;39;20271;-60
2022/03/11 06:16:10;;;;;;;12.45;7.38;;;;;;;7.11;41.20;101279.75;3589988;40;20117;-61
2022/03/11 06:18:35;;;;;;;12.85;8.10;;;;;;;7.07;41.19;101270.13;3588587;40;20056;-61
2022/03/11 06:21:01;;;;;;;12.43;7.07;;;;;;;7.19;41.15;101293.66;3585827;40;20051;-61
2022/03/11 06:23:26;;;;;;;14.75;8.27;;;;;;;7.19;41.19;101292.81;3588691;40;20290;-61
2022/03/11 06:25:52;;;;;;;16.65;7.97;;;;;;;7.16;41.10;101293.78;3589406;40;20073;-61
2022/03/11 06:28:17;;;;;;;11.98;8.00;;;;;;;7.16;41.12;101293.78;3588334;40;20059;-61
2022/03/11 06:30:46;;;;;;;13.18;7.65;;;;;;;7.24;41.21;101300.66;3587243;40;20087;-61
2022/03/11 06:33:12;;;;;;;12.40;7.65;;;;;;;6.67;41.41;101198.69;3589235;40;20303;-61
2022/03/11 06:35:37;;;;;;;13.82;8.13;;;;;;;7.24;41.54;101296.16;3588021;40;20048;-61
2022/03/11 06:38:03;;;;;;;16.48;7.97;;;;;;;7.32;41.40;101287.81;3588209;40;20479;-61
2022/03/11 06:40:29;;;;;;;14.38;8.02;;;;;;;7.38;41.10;101279.56;3587961;40;20063;-61
2022/03/11 06:42:55;;;;;;;17.15;10.02;;;;;;;7.59;41.21;101291.19;3591709;39;20098;-62
2022/03/11 06:45:22;;;;;;;17.15;8.88;;;;;;;7.63;40.14;101272.25;3590782;39;20390;-62
2022/03/11 06:47:48;;;;;;;13.68;7.95;;;;;;;7.94;40.48;101291.47;3588922;40;20054;-62
2022/03/11 06:50:18;;;;;;;12.50;8.00;;;;;;;8.00;40.14;101286.72;3591119;39;20052;-62
2022/03/11 06:52:44;;;;;;;15.05;8.50;;;;;;;7.91;39.96;101266.56;3590407;39;20342;-62
2022/03/11 06:55:11;;;;;;;13.75;8.10;;;;;;;8.11;39.76;101292.47;3589005;40;20060;-62
2022/03/11 06:57:37;;;;;;;13.77;8.40;;;;;;;8.16;39.84;101292.28;3589975;40;20151;-62
2022/03/11 07:00:08;;;;;;;14.38;8.45;;;;;;;8.21;39.80;101286.69;3590029;39;20060;-62
2022/03/11 07:02:36;;;;;;;11.52;8.10;;;;;;;8.26;39.49;101292.72;3588912;39;20055;-62
2022/03/11 07:05:06;;;;;;;15.82;8.82;;;;;;;8.23;39.48;101283.03;3588794;39;20057;-62
2022/03/11 07:07:33;;;;;;;15.20;8.38;;;;;;;8.22;39.39;101286.66;3588497;40;20399;-62
2022/03/11 07:10:09;;;;;;;17.77;8.13;;;;;;;8.19;39.67;101275.22;3590161;39;20306;-62
2022/03/11 07:12:35;;;;;;;13.65;8.43;;;;;;;8.22;39.87;101277.75;3581584;40;20052;-62
2022/03/11 07:15:04;;;;;;;13.02;7.90;;;;;;;8.24;39.84;101273.16;3589719;40;20071;-62
2022/03/11 07:17:29;;;;;;;13.88;8.68;;;;;;;8.26;39.65;101276.66;3590004;40;20156;-62
2022/03/11 07:19:55;;;;;;;12.85;8.60;;;;;;;8.31;39.62;101278.19;3583946;40;20594;-68
2022/03/11 07:22:21;;;;;;;11.88;8.00;;;;;;;8.36;39.43;101277.97;3589717;40;20056;-62
2022/03/11 07:24:46;;;;;;;15.00;8.60;;;;;;;7.89;40.24;101192.63;3590444;40;20382;-62
2022/03/11 07:27:15;;;;;;;13.23;8.48;;;;;;;8.51;39.49;101273.78;3587494;40;20126;-62
2022/03/11 07:29:41;;;;;;;12.65;8.23;;;;;;;8.66;39.21;101274.84;3588256;40;20052;-62
2022/03/11 07:32:08;;;;;;;15.10;9.07;;;;;;;8.88;39.51;101272.94;3590145;39;20099;-62
2022/03/11 07:34:35;;;;;;;13.05;8.65;;;;;;;8.79;38.85;101238.50;3591431;40;20048;-62
2022/03/11 07:37:01;;;;;;;17.00;9.25;;;;;;;9.31;38.52;101270.81;3589850;40;20081;-62
2022/03/11 07:39:27;;;;;;;14.25;8.68;;;;;;;9.53;37.27;101273.31;3587813;40;20126;-62
2022/03/11 07:41:53;;;;;;;14.07;8.63;;;;;;;9.71;37.08;101272.38;3591131;39;20117;-61
2022/03/11 07:44:20;;;;;;;18.45;9.27;;;;;;;9.90;36.98;101282.19;3588353;40;20059;-62
2022/03/11 07:46:46;;;;;;;13.88;9.23;;;;;;;9.99;37.07;101279.88;3588579;39;20055;-62
2022/03/11 07:49:12;;;;;;;16.25;9.00;;;;;;;10.11;36.84;101266.75;3588323;40;20059;-62
2022/03/11 07:51:39;;;;;;;14.23;8.50;;;;;;;10.33;36.89;101256.63;3587698;40;20036;-62
2022/03/11 07:54:04;;;;;;;14.18;8.52;;;;;;;10.56;36.52;101263.47;3589525;39;20096;-62
2022/03/11 07:56:30;;;;;;;15.25;8.82;;;;;;;10.82;35.37;101256.63;3589463;39;20374;-61
2022/03/11 07:58:56;;;;;;;13.57;8.48;;;;;;;10.94;35.87;101255.03;3589157;40;20059;-62
2022/03/11 08:01:22;;;;;;;16.27;8.93;;;;;;;11.20;35.96;101258.97;3588101;40;20063;-62
2022/03/11 08:03:48;;;;;;;16.73;9.48;;;;;;;11.04;35.25;101215.06;3587591;39;20043;-62
2022/03/11 08:06:14;;;;;;;14.65;9.02;;;;;;;11.39;34.84;101251.56;3589187;40;20051;-62
2022/03/11 08:08:42;;;;;;;14.55;9.05;;;;;;;11.32;34.77;101247.50;3589221;40;20099;-62
2022/03/11 08:11:07;;;;;;;14.57;9.40;;;;;;;11.42;34.31;101236.16;3587224;40;20052;-62
2022/03/11 08:13:34;;;;;;;12.48;9.00;;;;;;;11.58;35.20;101243.25;3589677;40;20393;-62
2022/03/11 08:16:01;;;;;;;15.65;9.88;;;;;;;11.68;34.91;101232.81;3589668;40;20049;-62
2022/03/11 08:18:26;;;;;;;16.10;9.95;;;;;;;11.69;34.92;101229.16;3589066;39;20095;-62
2022/03/11 08:20:52;;;;;;;13.77;9.50;;;;;;;11.72;33.93;101242.44;3588982;40;20135;-62
2022/03/11 08:23:18;;;;;;;15.43;9.65;;;;;;;11.98;33.54;101242.72;3590050;40;20058;-62
2022/03/11 08:25:45;;;;;;;16.23;9.80;;;;;;;12.14;33.97;101243.50;3589276;40;20537;-61
2022/03/11 08:28:12;;;;;;;13.98;9.32;;;;;;;12.34;34.04;101244.09;3588546;40;20060;-62
2022/03/11 08:30:38;;;;;;;16.27;9.35;;;;;;;12.60;33.44;101240.63;3589717;39;20054;-62
2022/03/11 08:33:04;;;;;;;15.30;9.90;;;;;;;12.83;32.81;101235.59;3588589;40;20040;-62
2022/03/11 08:35:31;;;;;;;13.82;9.48;;;;;;;12.81;32.51;101232.09;3588630;40;20154;-62
2022/03/11 08:37:58;;;;;;;17.67;10.02;;;;;;;12.90;32.83;101240.47;3588547;40;20388;-62
2022/03/11 08:40:26;;;;;;;14.95;10.10;;;;;;;12.92;32.49;101232.28;3587398;40;20395;-62
2022/03/11 08:42:52;;;;;;;14.02;10.20;;;;;;;13.04;32.36;101220.69;3588727;40;20390;-62
2022/03/11 08:45:22;;;;;;;14.63;10.27;;;;;;;13.04;32.36;101201.81;3588148;39;20064;-62
2022/03/11 08:47:53;;;;;;;19.17;9.68;;;;;;;13.35;32.05;101221.38;3587231;39;20839;-62
2022/03/11 08:50:21;;;;;;;15.20;9.48;;;;;;;13.43;32.45;101227.13;3588678;40;20051;-61
2022/03/11 08:52:47;;;;;;;16.02;9.57;;;;;;;13.53;31.97;101227.38;3589066;40;20373;-63
2022/03/11 08:55:15;;;;;;;15.38;10.30;;;;;;;13.36;31.93;101190.72;3589315;40;20058;-62
2022/03/11 08:57:48;;;;;;;13.55;9.48;;;;;;;13.62;32.05;101211.41;3587741;40;20056;-62
2022/03/11 09:00:16;;;;;;;14.20;9.52;;;;;;;13.78;31.83;101221.16;3588476;40;20052;-62
2022/03/11 09:02:44;;;;;;;15.90;10.13;;;;;;;13.79;31.56;101220.19;3586677;39;20060;-62
2022/03/11 09:05:11;;;;;;;14.50;9.95;;;;;;;13.88;32.10;101216.84;3588758;40;20286;-62
2022/03/11 09:07:37;;;;;;;14.32;9.73;;;;;;;13.87;32.03;101212.44;3590276;40;20044;-62
2022/03/11 09:10:09;;;;;;;17.42;9.82;;;;;;;13.87;31.95;101207.03;3587915;40;20052;-62
2022/03/11 09:12:36;;;;;;;15.98;10.60;;;;;;;13.96;31.86;101208.22;3586342;40;20119;-62
2022/03/11 09:15:04;;;;;;;18.25;10.63;;;;;;;14.03;31.82;101204.97;3585567;40;20056;-62
2022/03/11 09:17:30;;;;;;;17.23;10.30;;;;;;;14.16;31.51;101208.53;3588775;40;20121;-62
2022/03/11 09:19:56;;;;;;;17.13;10.18;;;;;;;14.27;31.44;101201.50;3586968;40;20058;-62
2022/03/11 09:22:22;;;;;;;21.10;11.00;;;;;;;14.39;31.82;101215.00;3587569;40;20067;-63
2022/03/11 09:24:48;;;;;;;18.40;10.57;;;;;;;14.03;31.82;101147.34;3591082;39;20062;-63
2022/03/11 09:27:14;;;;;;;21.98;10.48;;;;;;;14.36;31.23;101198.13;3589030;40;20117;-61
2022/03/11 09:29:40;;;;;;;21.63;10.85;;;;;;;14.39;31.58;101182.53;3585868;40;20056;-63
2022/03/11 09:32:07;;;;;;;15.05;10.63;;;;;;;14.41;31.84;101185.16;3587320;40;20089;-63
2022/03/11 09:34:37;;;;;;;19.60;10.55;;;;;;;14.51;31.69;101186.25;3588278;40;20052;-63
2022/03/11 09:37:04;;;;;;;17.20;11.50;;;;;;;14.38;31.82;101152.91;3588322;39;20117;-63
2022/03/11 09:39:29;;;;;;;17.17;10.55;;;;;;;13.09;31.61;100929.75;3577545;40;20282;-63
2022/03/11 09:41:55;;;;;;;16.15;10.07;;;;;;;14.36;31.81;101115.16;3590517;39;20287;-62
2022/03/11 09:44:24;;;;;;;15.27;10.25;;;;;;;14.80;31.18;101145.34;3590950;40;20060;-62
2022/03/11 09:46:50;;;;;;;16.15;9.85;;;;;;;15.18;31.35;101157.84;3591178;39;20113;-63
2022/03/11 09:49:17;;;;;;;16.25;9.88;;;;;;;15.36;30.55;101166.44;3587155;39;20059;-61
2022/03/11 09:51:48;;;;;;;14.30;9.85;;;;;;;15.47;30.95;101170.03;3588618;40;20301;-61
2022/03/11 09:54:15;;;;;;;16.33;9.95;;;;;;;15.58;30.81;101162.94;3590719;40;20051;-62
2022/03/11 09:56:45;;;;;;;14.73;10.35;;;;;;;15.26;30.39;101095.84;3588873;40;20048;-61
2022/03/11 09:59:12;;;;;;;15.70;9.63;;;;;;;15.70;30.77;101153.88;3589920;40;20056;-62
2022/03/11 10:01:42;;;;;;;13.90;9.63;;;;;;;15.84;30.96;101150.94;3590371;40;20116;-62
2022/03/11 10:04:09;;;;;;;16.08;9.93;;;;;;;16.01;30.04;101157.72;3589703;39;20060;-61
2022/03/11 10:06:47;;;;;;;14.60;10.05;;;;;;;15.92;30.39;101143.06;3589553;39;20056;-65
2022/03/11 10:09:18;;;;;;;16.17;10.23;;;;;;;15.85;30.53;101152.66;3591927;40;20067;-62
2022/03/11 10:11:53;;;;;;;16.27;10.35;;;;;;;15.67;30.45;101154.97;3587177;40;20060;-65
2022/03/11 10:14:29;;;;;;;14.20;10.32;;;;;;;15.61;30.83;101138.31;3591798;39;20063;-62
2022/03/11 10:16:55;;;;;;;18.13;11.30;;;;;;;15.84;31.24;101137.38;3590765;39;20055;-62
2022/03/11 10:19:22;;;;;;;18.83;10.90;;;;;;;16.02;30.21;101122.38;3585948;39;20096;-61
2022/03/11 10:21:50;;;;;;;13.25;9.63;;;;;;;16.04;30.50;101129.50;3589440;40;20051;-62
2022/03/11 10:24:21;;;;;;;16.50;10.93;;;;;;;16.16;30.66;101123.09;3587152;39;20051;-62
2022/03/11 10:26:50;;;;;;;13.65;10.30;;;;;;;16.34;30.46;101124.34;3592146;40;20138;-62
2022/03/11 10:29:27;;;;;;;16.23;10.57;;;;;;;16.53;30.42;101130.97;3590873;40;20059;-61
2022/03/11 10:31:55;;;;;;;15.30;10.30;;;;;;;16.61;30.46;101126.63;3592162;40;20040;-62
2022/03/11 10:34:28;;;;;;;15.57;10.10;;;;;;;16.84;30.72;101123.88;3587056;40;20036;-62
2022/03/11 10:36:56;;;;;;;13.43;9.65;;;;;;;16.97;30.21;101121.00;3588754;40;20124;-63
2022/03/11 10:39:27;;;;;;;13.98;9.30;;;;;;;17.00;29.36;101115.31;3586461;40;20048;-63
2022/03/11 10:42:10;;;;;;;16.95;9.73;;;;;;;16.96;29.74;101100.25;3585451;40;20044;-62
2022/03/11 10:44:35;;;;;;;14.83;9.60;;;;;;;16.92;29.71;101086.09;3592181;40;20375;-63
2022/03/11 10:47:20;;;;;;;16.83;9.82;;;;;;;16.72;30.20;101033.44;3593717;39;20047;-62
2022/03/11 10:49:54;;;;;;;13.75;8.93;;;;;;;17.14;29.51;101082.41;3588895;40;20374;-61
2022/03/11 10:52:46;;;;;;;15.25;9.70;;;;;;;17.25;30.11;101085.06;3586682;40;20391;-61
2022/03/11 10:55:23;;;;;;;15.68;9.40;;;;;;;17.37;29.33;101089.44;3583219;40;20051;-61
2022/03/11 10:57:56;;;;;;;16.77;10.60;;;;;;;17.40;29.70;101081.03;3589390;39;20048;-61
2022/03/11 11:00:39;;;;;;;13.73;9.98;;;;;;;17.60;29.35;101083.84;3588685;40;20048;-63
2022/03/11 11:03:08;;;;;;;15.88;10.80;;;;;;;17.68;29.79;101078.63;3577993;40;20064;-65
2022/03/11 11:05:36;;;;;;;18.70;10.82;;;;;;;17.60;28.90;101035.81;3591223;39;20114;-63
2022/03/11 11:08:06;;;;;;;18.73;11.00;;;;;;;17.89;28.63;101084.06;3591439;39;20056;-63
2022/03/11 11:10:37;;;;;;;23.20;10.88;;;;;;;17.88;28.62;101081.47;3589376;40;20090;-62
2022/03/11 11:13:03;;;;;;;15.55;11.40;;;;;;;17.80;28.45;101074.84;3589776;40;20040;-63
2022/03/11 11:15:28;;;;;;;18.98;11.25;;;;;;;17.71;29.00;101075.63;3588708;40;20181;-61
2022/03/11 11:17:54;;;;;;;18.67;11.05;;;;;;;17.62;29.41;101081.88;3591090;40;20059;-63
2022/03/11 11:20:33;;;;;;;15.13;11.00;;;;;;;17.59;28.91;101066.69;3591251;40;20145;-63
2022/03/11 11:23:05;;;;;;;16.42;11.88;;;;;;;17.55;29.75;101076.13;3591922;39;20052;-62